sensor_id;sensor_type;location;lat;lon;timestamp;P1;durP1;ratioP1;P2;durP2;ratioP2
17864;SDS011;9058;52.018;4.202;2024-02-26T00:01:41;16.27;;;15.27;;
17864;SDS011;9058;52.018;4.202;2024-02-26T00:04:08;15.65;;;14.90;;
17864;SDS011;9058;52.018;4.202;2024-02-26T00:06:36;18.95;;;17.80;;
17864;SDS011;9058;52.018;4.202;2024-02-26T00:09:03;17.80;;;16.70;;
17864;SDS011;9058;52.018;4.202;2024-02-26T00:11:31;19.88;;;18.70;;
17864;SDS011;9058;52.018;4.202;2024-02-26T00:13:57;18.30;;;17.20;;
17864;SDS011;9058;52.018;4.202;2024-02-26T00:16:25;17.77;;;16.88;;
17864;SDS011;9058;52.018;4.202;2024-02-26T00:18:51;15.38;;;14.57;;
17864;SDS011;9058;52.018;4.202;2024-02-26T00:21:18;16.90;;;16.02;;
17864;SDS011;9058;52.018;4.202;2024-02-26T00:23:46;16.25;;;15.45;;
17864;SDS011;9058;52.018;4.202;2024-02-26T00:26:12;17.20;;;16.10;;
17864;SDS011;9058;52.018;4.202;2024-02-26T00:28:38;17.58;;;16.60;;
17864;SDS011;9058;52.018;4.202;2024-02-26T00:31:05;17.20;;;16.10;;
17864;SDS011;9058;52.018;4.202;2024-02-26T00:33:31;17.42;;;16.52;;
17864;SDS011;9058;52.018;4.202;2024-02-26T00:35:57;16.88;;;15.88;;
17864;SDS011;9058;52.018;4.202;2024-02-26T00:38:25;15.27;;;14.18;;
17864;SDS011;9058;52.018;4.202;2024-02-26T00:40:53;18.20;;;17.20;;
17864;SDS011;9058;52.018;4.202;2024-02-26T00:43:19;17.63;;;16.73;;
17864;SDS011;9058;52.018;4.202;2024-02-26T00:45:45;16.02;;;15.18;;
17864;SDS011;9058;52.018;4.202;2024-02-26T00:48:13;17.60;;;16.60;;
17864;SDS011;9058;52.018;4.202;2024-02-26T00:50:40;16.77;;;15.88;;
17864;SDS011;9058;52.018;4.202;2024-02-26T00:53:06;16.58;;;15.70;;
17864;SDS011;9058;52.018;4.202;2024-02-26T00:55:33;16.75;;;15.85;;
17864;SDS011;9058;52.018;4.202;2024-02-26T00:58:02;17.60;;;16.52;;
17864;SDS011;9058;52.018;4.202;2024-02-26T01:00:28;19.95;;;18.70;;
17864;SDS011;9058;52.018;4.202;2024-02-26T01:02:55;17.08;;;15.93;;
17864;SDS011;9058;52.018;4.202;2024-02-26T01:05:22;16.63;;;15.73;;
17864;SDS011;9058;52.018;4.202;2024-02-26T01:07:48;16.65;;;15.57;;
17864;SDS011;9058;52.018;4.202;2024-02-26T01:10:15;17.73;;;16.83;;
17864;SDS011;9058;52.018;4.202;2024-02-26T01:12:42;14.82;;;14.02;;
17864;SDS011;9058;52.018;4.202;2024-02-26T01:15:10;16.80;;;15.90;;
17864;SDS011;9058;52.018;4.202;2024-02-26T01:17:37;15.55;;;14.65;;
17864;SDS011;9058;52.018;4.202;2024-02-26T01:20:04;14.23;;;13.43;;
17864;SDS011;9058;52.018;4.202;2024-02-26T01:22:33;15.38;;;14.63;;
17864;SDS011;9058;52.018;4.202;2024-02-26T01:25:00;16.10;;;15.07;;
17864;SDS011;9058;52.018;4.202;2024-02-26T01:27:26;13.95;;;13.25;;
17864;SDS011;9058;52.018;4.202;2024-02-26T01:29:53;14.98;;;14.20;;
17864;SDS011;9058;52.018;4.202;2024-02-26T01:32:21;16.60;;;15.75;;
17864;SDS011;9058;52.018;4.202;2024-02-26T01:34:47;14.20;;;13.50;;
17864;SDS011;9058;52.018;4.202;2024-02-26T01:37:13;14.63;;;13.93;;
17864;SDS011;9058;52.018;4.202;2024-02-26T01:39:40;13.98;;;13.30;;
17864;SDS011;9058;52.018;4.202;2024-02-26T01:42:07;14.30;;;13.50;;
17864;SDS011;9058;52.018;4.202;2024-02-26T01:44:36;16.00;;;14.88;;
17864;SDS011;9058;52.018;4.202;2024-02-26T01:47:03;14.55;;;13.85;;
17864;SDS011;9058;52.018;4.202;2024-02-26T01:49:32;14.50;;;13.82;;
17864;SDS011;9058;52.018;4.202;2024-02-26T01:51:58;15.75;;;14.93;;
17864;SDS011;9058;52.018;4.202;2024-02-26T01:54:25;14.63;;;13.65;;
17864;SDS011;9058;52.018;4.202;2024-02-26T01:56:51;14.60;;;13.90;;
17864;SDS011;9058;52.018;4.202;2024-02-26T01:59:18;15.45;;;14.65;;
17864;SDS011;9058;52.018;4.202;2024-02-26T02:01:44;15.82;;;14.93;;
17864;SDS011;9058;52.018;4.202;2024-02-26T02:04:13;17.08;;;16.20;;
17864;SDS011;9058;52.018;4.202;2024-02-26T02:06:41;14.13;;;13.43;;
17864;SDS011;9058;52.018;4.202;2024-02-26T02:09:08;14.88;;;14.10;;
17864;SDS011;9058;52.018;4.202;2024-02-26T02:11:34;15.48;;;14.57;;
17864;SDS011;9058;52.018;4.202;2024-02-26T02:14:01;15.23;;;14.35;;
17864;SDS011;9058;52.018;4.202;2024-02-26T02:16:27;14.05;;;13.35;;
17864;SDS011;9058;52.018;4.202;2024-02-26T02:18:54;17.33;;;16.33;;
17864;SDS011;9058;52.018;4.202;2024-02-26T02:21:22;18.02;;;16.90;;
17864;SDS011;9058;52.018;4.202;2024-02-26T02:23:49;14.23;;;13.32;;
17864;SDS011;9058;52.018;4.202;2024-02-26T02:26:16;17.42;;;16.35;;
17864;SDS011;9058;52.018;4.202;2024-02-26T02:28:43;15.77;;;14.88;;
17864;SDS011;9058;52.018;4.202;2024-02-26T02:31:10;15.20;;;14.35;;
17864;SDS011;9058;52.018;4.202;2024-02-26T02:33:36;15.07;;;14.20;;
17864;SDS011;9058;52.018;4.202;2024-02-26T02:36:04;15.13;;;14.18;;
17864;SDS011;9058;52.018;4.202;2024-02-26T02:38:36;14.90;;;13.90;;
17864;SDS011;9058;52.018;4.202;2024-02-26T02:41:02;17.65;;;16.65;;
17864;SDS011;9058;52.018;4.202;2024-02-26T02:43:29;14.90;;;13.90;;
17864;SDS011;9058;52.018;4.202;2024-02-26T02:45:55;14.15;;;13.25;;
17864;SDS011;9058;52.018;4.202;2024-02-26T02:48:21;13.70;;;12.90;;
17864;SDS011;9058;52.018;4.202;2024-02-26T02:50:48;15.35;;;14.45;;
17864;SDS011;9058;52.018;4.202;2024-02-26T02:53:15;12.77;;;12.07;;
17864;SDS011;9058;52.018;4.202;2024-02-26T02:55:45;15.50;;;14.60;;
17864;SDS011;9058;52.018;4.202;2024-02-26T02:58:12;16.25;;;15.20;;
17864;SDS011;9058;52.018;4.202;2024-02-26T03:00:38;15.73;;;14.68;;
17864;SDS011;9058;52.018;4.202;2024-02-26T03:03:05;14.57;;;13.57;;
17864;SDS011;9058;52.018;4.202;2024-02-26T03:05:32;15.52;;;14.43;;
17864;SDS011;9058;52.018;4.202;2024-02-26T03:07:59;14.30;;;13.50;;
17864;SDS011;9058;52.018;4.202;2024-02-26T03:10:26;14.70;;;13.77;;
17864;SDS011;9058;52.018;4.202;2024-02-26T03:12:54;12.57;;;11.82;;
17864;SDS011;9058;52.018;4.202;2024-02-26T03:15:21;13.15;;;12.45;;
17864;SDS011;9058;52.018;4.202;2024-02-26T03:17:47;13.35;;;12.63;;
17864;SDS011;9058;52.018;4.202;2024-02-26T03:20:14;10.80;;;10.20;;
17864;SDS011;9058;52.018;4.202;2024-02-26T03:22:40;11.07;;;10.38;;
17864;SDS011;9058;52.018;4.202;2024-02-26T03:25:06;11.02;;;10.20;;
17864;SDS011;9058;52.018;4.202;2024-02-26T03:27:33;12.00;;;11.30;;
17864;SDS011;9058;52.018;4.202;2024-02-26T03:30:02;12.52;;;11.73;;
17864;SDS011;9058;52.018;4.202;2024-02-26T03:32:28;13.30;;;12.55;;
17864;SDS011;9058;52.018;4.202;2024-02-26T03:34:55;13.38;;;12.57;;
17864;SDS011;9058;52.018;4.202;2024-02-26T03:37:22;13.07;;;12.38;;
17864;SDS011;9058;52.018;4.202;2024-02-26T03:39:49;13.70;;;12.98;;
17864;SDS011;9058;52.018;4.202;2024-02-26T03:42:15;14.70;;;13.90;;
17864;SDS011;9058;52.018;4.202;2024-02-26T03:44:42;15.05;;;13.90;;
17864;SDS011;9058;52.018;4.202;2024-02-26T03:47:10;15.93;;;14.88;;
17864;SDS011;9058;52.018;4.202;2024-02-26T03:49:36;13.45;;;12.60;;
17864;SDS011;9058;52.018;4.202;2024-02-26T03:52:02;13.40;;;12.63;;
17864;SDS011;9058;52.018;4.202;2024-02-26T03:54:29;15.55;;;14.60;;
17864;SDS011;9058;52.018;4.202;2024-02-26T03:56:55;13.52;;;12.73;;
17864;SDS011;9058;52.018;4.202;2024-02-26T03:59:22;19.17;;;17.98;;
17864;SDS011;9058;52.018;4.202;2024-02-26T04:01:49;15.15;;;14.25;;
17864;SDS011;9058;52.018;4.202;2024-02-26T04:04:19;16.90;;;15.63;;
17864;SDS011;9058;52.018;4.202;2024-02-26T04:06:46;17.20;;;16.15;;
17864;SDS011;9058;52.018;4.202;2024-02-26T04:09:13;15.75;;;14.77;;
17864;SDS011;9058;52.018;4.202;2024-02-26T04:11:39;18.17;;;17.08;;
17864;SDS011;9058;52.018;4.202;2024-02-26T04:14:05;18.27;;;17.17;;
17864;SDS011;9058;52.018;4.202;2024-02-26T04:16:33;20.13;;;18.80;;
17864;SDS011;9058;52.018;4.202;2024-02-26T04:19:00;19.27;;;18.08;;
17864;SDS011;9058;52.018;4.202;2024-02-26T04:21:29;15.82;;;14.93;;
17864;SDS011;9058;52.018;4.202;2024-02-26T04:23:56;18.75;;;17.55;;
17864;SDS011;9058;52.018;4.202;2024-02-26T04:26:26;18.63;;;17.42;;
17864;SDS011;9058;52.018;4.202;2024-02-26T04:28:52;19.38;;;18.23;;
17864;SDS011;9058;52.018;4.202;2024-02-26T04:31:19;19.70;;;18.60;;
17864;SDS011;9058;52.018;4.202;2024-02-26T04:33:46;19.77;;;18.58;;
17864;SDS011;9058;52.018;4.202;2024-02-26T04:36:13;19.40;;;18.20;;
17864;SDS011;9058;52.018;4.202;2024-02-26T04:38:41;19.70;;;18.58;;
17864;SDS011;9058;52.018;4.202;2024-02-26T04:41:07;20.20;;;18.80;;
17864;SDS011;9058;52.018;4.202;2024-02-26T04:43:34;21.13;;;19.63;;
17864;SDS011;9058;52.018;4.202;2024-02-26T04:46:06;21.23;;;19.92;;
17864;SDS011;9058;52.018;4.202;2024-02-26T04:48:33;23.48;;;21.88;;
17864;SDS011;9058;52.018;4.202;2024-02-26T04:51:00;20.67;;;19.38;;
17864;SDS011;9058;52.018;4.202;2024-02-26T04:53:26;21.17;;;19.77;;
17864;SDS011;9058;52.018;4.202;2024-02-26T04:55:54;22.20;;;20.70;;
17864;SDS011;9058;52.018;4.202;2024-02-26T04:58:21;23.23;;;21.70;;
17864;SDS011;9058;52.018;4.202;2024-02-26T05:00:47;22.17;;;20.58;;
17864;SDS011;9058;52.018;4.202;2024-02-26T05:03:14;22.83;;;21.30;;
17864;SDS011;9058;52.018;4.202;2024-02-26T05:05:40;23.63;;;21.95;;
17864;SDS011;9058;52.018;4.202;2024-02-26T05:08:07;22.40;;;20.90;;
17864;SDS011;9058;52.018;4.202;2024-02-26T05:10:34;19.55;;;18.10;;
17864;SDS011;9058;52.018;4.202;2024-02-26T05:13:05;21.58;;;20.10;;
17864;SDS011;9058;52.018;4.202;2024-02-26T05:15:32;23.15;;;21.65;;
17864;SDS011;9058;52.018;4.202;2024-02-26T05:17:58;20.73;;;19.33;;
17864;SDS011;9058;52.018;4.202;2024-02-26T05:20:25;20.55;;;19.10;;
17864;SDS011;9058;52.018;4.202;2024-02-26T05:22:51;22.17;;;20.60;;
17864;SDS011;9058;52.018;4.202;2024-02-26T05:25:18;21.50;;;19.90;;
17864;SDS011;9058;52.018;4.202;2024-02-26T05:27:45;21.05;;;19.55;;
17864;SDS011;9058;52.018;4.202;2024-02-26T05:30:13;20.67;;;19.27;;
17864;SDS011;9058;52.018;4.202;2024-02-26T05:32:40;22.75;;;20.92;;
17864;SDS011;9058;52.018;4.202;2024-02-26T05:35:07;23.20;;;21.60;;
17864;SDS011;9058;52.018;4.202;2024-02-26T05:37:33;22.77;;;21.17;;
17864;SDS011;9058;52.018;4.202;2024-02-26T05:40:00;23.27;;;21.65;;
17864;SDS011;9058;52.018;4.202;2024-02-26T05:42:29;21.17;;;19.67;;
17864;SDS011;9058;52.018;4.202;2024-02-26T05:44:56;22.60;;;20.80;;
17864;SDS011;9058;52.018;4.202;2024-02-26T05:47:24;21.98;;;20.40;;
17864;SDS011;9058;52.018;4.202;2024-02-26T05:49:50;21.83;;;20.15;;
17864;SDS011;9058;52.018;4.202;2024-02-26T05:52:17;24.52;;;22.83;;
17864;SDS011;9058;52.018;4.202;2024-02-26T05:54:44;23.25;;;21.30;;
17864;SDS011;9058;52.018;4.202;2024-02-26T05:57:11;20.58;;;19.08;;
17864;SDS011;9058;52.018;4.202;2024-02-26T05:59:37;22.70;;;21.00;;
17864;SDS011;9058;52.018;4.202;2024-02-26T06:02:04;23.17;;;21.40;;
17864;SDS011;9058;52.018;4.202;2024-02-26T06:04:33;26.40;;;24.52;;
17864;SDS011;9058;52.018;4.202;2024-02-26T06:07:00;26.80;;;24.73;;
17864;SDS011;9058;52.018;4.202;2024-02-26T06:09:26;24.95;;;22.77;;
17864;SDS011;9058;52.018;4.202;2024-02-26T06:11:53;24.00;;;22.10;;
17864;SDS011;9058;52.018;4.202;2024-02-26T06:14:19;26.40;;;24.40;;
17864;SDS011;9058;52.018;4.202;2024-02-26T06:16:46;23.63;;;21.77;;
17864;SDS011;9058;52.018;4.202;2024-02-26T06:19:13;24.38;;;22.20;;
17864;SDS011;9058;52.018;4.202;2024-02-26T06:21:41;25.02;;;22.92;;
17864;SDS011;9058;52.018;4.202;2024-02-26T06:24:08;22.92;;;20.85;;
17864;SDS011;9058;52.018;4.202;2024-02-26T06:26:34;25.42;;;23.40;;
17864;SDS011;9058;52.018;4.202;2024-02-26T06:29:00;23.08;;;21.27;;
17864;SDS011;9058;52.018;4.202;2024-02-26T06:31:27;26.15;;;23.88;;
17864;SDS011;9058;52.018;4.202;2024-02-26T06:33:54;28.58;;;26.27;;
17864;SDS011;9058;52.018;4.202;2024-02-26T06:36:21;24.60;;;22.42;;
17864;SDS011;9058;52.018;4.202;2024-02-26T06:38:49;23.50;;;21.40;;
17864;SDS011;9058;52.018;4.202;2024-02-26T06:41:16;26.05;;;23.75;;
17864;SDS011;9058;52.018;4.202;2024-02-26T06:43:43;26.52;;;24.33;;
17864;SDS011;9058;52.018;4.202;2024-02-26T06:46:09;27.15;;;24.85;;
17864;SDS011;9058;52.018;4.202;2024-02-26T06:48:35;27.40;;;25.10;;
17864;SDS011;9058;52.018;4.202;2024-02-26T06:51:02;27.00;;;24.70;;
17864;SDS011;9058;52.018;4.202;2024-02-26T06:53:28;27.90;;;25.52;;
17864;SDS011;9058;52.018;4.202;2024-02-26T06:55:56;28.15;;;25.95;;
17864;SDS011;9058;52.018;4.202;2024-02-26T06:58:23;27.35;;;25.02;;
17864;SDS011;9058;52.018;4.202;2024-02-26T07:00:49;29.30;;;26.80;;
17864;SDS011;9058;52.018;4.202;2024-02-26T07:03:16;27.60;;;25.30;;
17864;SDS011;9058;52.018;4.202;2024-02-26T07:05:43;26.65;;;24.55;;
17864;SDS011;9058;52.018;4.202;2024-02-26T07:08:10;28.70;;;26.27;;
17864;SDS011;9058;52.018;4.202;2024-02-26T07:10:37;27.52;;;25.13;;
17864;SDS011;9058;52.018;4.202;2024-02-26T07:13:08;27.25;;;25.13;;
17864;SDS011;9058;52.018;4.202;2024-02-26T07:15:34;26.42;;;24.42;;
17864;SDS011;9058;52.018;4.202;2024-02-26T07:18:00;28.00;;;25.58;;
17864;SDS011;9058;52.018;4.202;2024-02-26T07:20:28;25.05;;;23.05;;
17864;SDS011;9058;52.018;4.202;2024-02-26T07:22:54;26.27;;;24.23;;
17864;SDS011;9058;52.018;4.202;2024-02-26T07:25:21;27.48;;;25.15;;
17864;SDS011;9058;52.018;4.202;2024-02-26T07:27:49;26.60;;;24.50;;
17864;SDS011;9058;52.018;4.202;2024-02-26T07:30:16;24.83;;;22.80;;
17864;SDS011;9058;52.018;4.202;2024-02-26T07:32:43;25.15;;;23.15;;
17864;SDS011;9058;52.018;4.202;2024-02-26T07:35:09;24.83;;;22.67;;
17864;SDS011;9058;52.018;4.202;2024-02-26T07:37:36;25.10;;;23.20;;
17864;SDS011;9058;52.018;4.202;2024-02-26T07:40:04;24.77;;;22.80;;
17864;SDS011;9058;52.018;4.202;2024-02-26T07:42:31;25.55;;;23.42;;
17864;SDS011;9058;52.018;4.202;2024-02-26T07:44:57;25.42;;;23.48;;
17864;SDS011;9058;52.018;4.202;2024-02-26T07:47:25;25.75;;;23.75;;
17864;SDS011;9058;52.018;4.202;2024-02-26T07:49:51;24.08;;;22.27;;
17864;SDS011;9058;52.018;4.202;2024-02-26T07:52:18;23.13;;;21.38;;
17864;SDS011;9058;52.018;4.202;2024-02-26T07:54:45;23.70;;;21.83;;
17864;SDS011;9058;52.018;4.202;2024-02-26T07:57:11;22.27;;;20.52;;
17864;SDS011;9058;52.018;4.202;2024-02-26T07:59:40;22.40;;;20.77;;
17864;SDS011;9058;52.018;4.202;2024-02-26T08:02:07;20.85;;;19.35;;
17864;SDS011;9058;52.018;4.202;2024-02-26T08:04:35;25.00;;;23.20;;
17864;SDS011;9058;52.018;4.202;2024-02-26T08:07:01;21.95;;;20.25;;
17864;SDS011;9058;52.018;4.202;2024-02-26T08:09:29;20.95;;;19.35;;
17864;SDS011;9058;52.018;4.202;2024-02-26T08:11:56;21.00;;;19.60;;
17864;SDS011;9058;52.018;4.202;2024-02-26T08:14:22;22.45;;;20.85;;
17864;SDS011;9058;52.018;4.202;2024-02-26T08:16:49;21.73;;;20.13;;
17864;SDS011;9058;52.018;4.202;2024-02-26T08:19:15;20.40;;;19.00;;
17864;SDS011;9058;52.018;4.202;2024-02-26T08:21:44;22.00;;;20.40;;
17864;SDS011;9058;52.018;4.202;2024-02-26T08:24:10;21.45;;;20.00;;
17864;SDS011;9058;52.018;4.202;2024-02-26T08:26:36;18.90;;;17.63;;
17864;SDS011;9058;52.018;4.202;2024-02-26T08:29:03;19.48;;;17.98;;
17864;SDS011;9058;52.018;4.202;2024-02-26T08:31:29;20.25;;;18.95;;
17864;SDS011;9058;52.018;4.202;2024-02-26T08:33:55;20.02;;;18.65;;
17864;SDS011;9058;52.018;4.202;2024-02-26T08:36:23;18.30;;;17.20;;
17864;SDS011;9058;52.018;4.202;2024-02-26T08:38:51;20.30;;;18.90;;
17864;SDS011;9058;52.018;4.202;2024-02-26T08:41:18;18.30;;;17.15;;
17864;SDS011;9058;52.018;4.202;2024-02-26T08:43:45;18.08;;;16.70;;
17864;SDS011;9058;52.018;4.202;2024-02-26T08:46:12;20.45;;;19.05;;
17864;SDS011;9058;52.018;4.202;2024-02-26T08:48:38;19.20;;;17.98;;
17864;SDS011;9058;52.018;4.202;2024-02-26T08:51:05;17.10;;;15.98;;
17864;SDS011;9058;52.018;4.202;2024-02-26T08:53:32;19.23;;;17.95;;
17864;SDS011;9058;52.018;4.202;2024-02-26T08:56:00;19.20;;;17.95;;
17864;SDS011;9058;52.018;4.202;2024-02-26T08:58:27;19.70;;;18.25;;
17864;SDS011;9058;52.018;4.202;2024-02-26T09:00:53;19.90;;;18.50;;
17864;SDS011;9058;52.018;4.202;2024-02-26T09:03:20;21.17;;;19.75;;
17864;SDS011;9058;52.018;4.202;2024-02-26T09:05:47;17.10;;;16.08;;
17864;SDS011;9058;52.018;4.202;2024-02-26T09:08:13;18.88;;;17.77;;
17864;SDS011;9058;52.018;4.202;2024-02-26T09:10:40;18.67;;;17.38;;
17864;SDS011;9058;52.018;4.202;2024-02-26T09:13:08;18.15;;;17.05;;
17864;SDS011;9058;52.018;4.202;2024-02-26T09:15:34;17.77;;;16.65;;
17864;SDS011;9058;52.018;4.202;2024-02-26T09:18:01;19.15;;;18.02;;
17864;SDS011;9058;52.018;4.202;2024-02-26T09:20:28;19.05;;;17.95;;
17864;SDS011;9058;52.018;4.202;2024-02-26T09:22:54;17.73;;;16.63;;
17864;SDS011;9058;52.018;4.202;2024-02-26T09:25:21;19.30;;;18.02;;
17864;SDS011;9058;52.018;4.202;2024-02-26T09:27:47;18.75;;;17.65;;
17864;SDS011;9058;52.018;4.202;2024-02-26T09:30:16;17.00;;;15.68;;
17864;SDS011;9058;52.018;4.202;2024-02-26T09:32:45;17.58;;;16.48;;
17864;SDS011;9058;52.018;4.202;2024-02-26T09:35:12;17.05;;;15.70;;
17864;SDS011;9058;52.018;4.202;2024-02-26T09:37:38;17.58;;;16.33;;
17864;SDS011;9058;52.018;4.202;2024-02-26T09:40:05;17.42;;;16.42;;
17864;SDS011;9058;52.018;4.202;2024-02-26T09:42:31;16.20;;;15.07;;
17864;SDS011;9058;52.018;4.202;2024-02-26T09:44:59;16.48;;;15.50;;
17864;SDS011;9058;52.018;4.202;2024-02-26T09:47:28;15.90;;;14.90;;
17864;SDS011;9058;52.018;4.202;2024-02-26T09:49:56;16.75;;;15.65;;
17864;SDS011;9058;52.018;4.202;2024-02-26T09:52:24;17.30;;;16.27;;
17864;SDS011;9058;52.018;4.202;2024-02-26T09:54:51;17.30;;;16.17;;
17864;SDS011;9058;52.018;4.202;2024-02-26T09:57:18;15.85;;;14.88;;
17864;SDS011;9058;52.018;4.202;2024-02-26T09:59:49;16.17;;;15.27;;
17864;SDS011;9058;52.018;4.202;2024-02-26T10:02:18;16.58;;;15.38;;
17864;SDS011;9058;52.018;4.202;2024-02-26T10:04:47;15.80;;;14.77;;
17864;SDS011;9058;52.018;4.202;2024-02-26T10:07:16;16.02;;;15.05;;
17864;SDS011;9058;52.018;4.202;2024-02-26T10:09:42;17.27;;;16.27;;
17864;SDS011;9058;52.018;4.202;2024-02-26T10:12:09;16.13;;;15.13;;
17864;SDS011;9058;52.018;4.202;2024-02-26T10:14:36;16.45;;;15.32;;
17864;SDS011;9058;52.018;4.202;2024-02-26T10:17:04;16.73;;;15.63;;
17864;SDS011;9058;52.018;4.202;2024-02-26T10:19:34;15.50;;;14.57;;
17864;SDS011;9058;52.018;4.202;2024-02-26T10:22:01;18.15;;;17.05;;
17864;SDS011;9058;52.018;4.202;2024-02-26T10:24:28;16.30;;;15.40;;
17864;SDS011;9058;52.018;4.202;2024-02-26T10:26:55;16.88;;;15.38;;
17864;SDS011;9058;52.018;4.202;2024-02-26T10:29:23;14.55;;;13.68;;
17864;SDS011;9058;52.018;4.202;2024-02-26T10:31:50;16.08;;;14.88;;
17864;SDS011;9058;52.018;4.202;2024-02-26T10:34:17;14.77;;;13.95;;
17864;SDS011;9058;52.018;4.202;2024-02-26T10:36:43;15.90;;;15.00;;
17864;SDS011;9058;52.018;4.202;2024-02-26T10:39:11;15.75;;;14.57;;
17864;SDS011;9058;52.018;4.202;2024-02-26T10:41:39;14.98;;;14.00;;
17864;SDS011;9058;52.018;4.202;2024-02-26T10:44:06;14.10;;;13.35;;
17864;SDS011;9058;52.018;4.202;2024-02-26T10:46:34;14.70;;;13.65;;
17864;SDS011;9058;52.018;4.202;2024-02-26T10:49:00;12.80;;;12.00;;
17864;SDS011;9058;52.018;4.202;2024-02-26T10:51:28;13.70;;;12.70;;
17864;SDS011;9058;52.018;4.202;2024-02-26T10:53:57;13.20;;;12.40;;
17864;SDS011;9058;52.018;4.202;2024-02-26T10:56:26;13.82;;;12.90;;
17864;SDS011;9058;52.018;4.202;2024-02-26T10:58:53;13.95;;;12.82;;
17864;SDS011;9058;52.018;4.202;2024-02-26T11:01:21;14.13;;;13.32;;
17864;SDS011;9058;52.018;4.202;2024-02-26T11:03:48;12.23;;;11.43;;
17864;SDS011;9058;52.018;4.202;2024-02-26T11:06:16;13.50;;;12.75;;
17864;SDS011;9058;52.018;4.202;2024-02-26T11:08:42;14.27;;;13.35;;
17864;SDS011;9058;52.018;4.202;2024-02-26T11:11:09;12.52;;;11.63;;
17864;SDS011;9058;52.018;4.202;2024-02-26T11:13:41;13.30;;;12.40;;
17864;SDS011;9058;52.018;4.202;2024-02-26T11:16:10;13.43;;;12.63;;
17864;SDS011;9058;52.018;4.202;2024-02-26T11:18:37;13.63;;;12.77;;
17864;SDS011;9058;52.018;4.202;2024-02-26T11:21:04;13.90;;;12.95;;
17864;SDS011;9058;52.018;4.202;2024-02-26T11:23:30;12.98;;;12.27;;
17864;SDS011;9058;52.018;4.202;2024-02-26T11:26:00;14.55;;;13.65;;
17864;SDS011;9058;52.018;4.202;2024-02-26T11:28:28;14.05;;;12.82;;
17864;SDS011;9058;52.018;4.202;2024-02-26T11:30:56;14.13;;;13.32;;
17864;SDS011;9058;52.018;4.202;2024-02-26T11:33:24;14.35;;;13.48;;
17864;SDS011;9058;52.018;4.202;2024-02-26T11:35:50;12.95;;;12.15;;
17864;SDS011;9058;52.018;4.202;2024-02-26T11:38:17;13.70;;;12.80;;
17864;SDS011;9058;52.018;4.202;2024-02-26T11:40:45;15.35;;;14.15;;
17864;SDS011;9058;52.018;4.202;2024-02-26T11:43:12;14.35;;;13.43;;
17864;SDS011;9058;52.018;4.202;2024-02-26T11:45:47;16.02;;;15.20;;
17864;SDS011;9058;52.018;4.202;2024-02-26T11:48:21;12.95;;;12.18;;
17864;SDS011;9058;52.018;4.202;2024-02-26T11:50:48;16.20;;;15.15;;
17864;SDS011;9058;52.018;4.202;2024-02-26T11:53:19;13.45;;;12.75;;
17864;SDS011;9058;52.018;4.202;2024-02-26T11:55:46;16.33;;;15.25;;
17864;SDS011;9058;52.018;4.202;2024-02-26T11:58:12;15.27;;;14.27;;
17864;SDS011;9058;52.018;4.202;2024-02-26T12:00:39;14.88;;;13.75;;
17864;SDS011;9058;52.018;4.202;2024-02-26T12:03:06;13.55;;;12.85;;
17864;SDS011;9058;52.018;4.202;2024-02-26T12:05:34;17.52;;;16.52;;
17864;SDS011;9058;52.018;4.202;2024-02-26T12:08:04;16.08;;;15.07;;
17864;SDS011;9058;52.018;4.202;2024-02-26T12:10:32;15.18;;;14.27;;
17864;SDS011;9058;52.018;4.202;2024-02-26T12:13:02;13.60;;;12.80;;
17864;SDS011;9058;52.018;4.202;2024-02-26T12:15:31;15.35;;;14.48;;
17864;SDS011;9058;52.018;4.202;2024-02-26T12:18:00;13.88;;;13.07;;
17864;SDS011;9058;52.018;4.202;2024-02-26T12:20:27;13.93;;;13.20;;
17864;SDS011;9058;52.018;4.202;2024-02-26T12:22:54;13.35;;;12.45;;
17864;SDS011;9058;52.018;4.202;2024-02-26T12:25:23;16.20;;;15.27;;
17864;SDS011;9058;52.018;4.202;2024-02-26T12:27:50;14.95;;;14.25;;
17864;SDS011;9058;52.018;4.202;2024-02-26T12:30:18;15.60;;;14.70;;
17864;SDS011;9058;52.018;4.202;2024-02-26T12:32:44;16.63;;;15.63;;
17864;SDS011;9058;52.018;4.202;2024-02-26T12:35:11;15.13;;;14.23;;
17864;SDS011;9058;52.018;4.202;2024-02-26T12:37:38;14.60;;;13.85;;
17864;SDS011;9058;52.018;4.202;2024-02-26T12:40:07;14.85;;;13.95;;
17864;SDS011;9058;52.018;4.202;2024-02-26T12:42:34;12.77;;;11.98;;
17864;SDS011;9058;52.018;4.202;2024-02-26T12:45:04;14.23;;;13.02;;
17864;SDS011;9058;52.018;4.202;2024-02-26T12:47:34;13.20;;;12.48;;
17864;SDS011;9058;52.018;4.202;2024-02-26T12:50:01;14.07;;;13.10;;
17864;SDS011;9058;52.018;4.202;2024-02-26T12:52:29;11.38;;;10.68;;
17864;SDS011;9058;52.018;4.202;2024-02-26T12:54:55;12.13;;;11.43;;
17864;SDS011;9058;52.018;4.202;2024-02-26T12:57:23;13.07;;;12.18;;
17864;SDS011;9058;52.018;4.202;2024-02-26T12:59:50;12.25;;;11.50;;
17864;SDS011;9058;52.018;4.202;2024-02-26T13:02:17;12.38;;;11.65;;
17864;SDS011;9058;52.018;4.202;2024-02-26T13:04:43;12.05;;;11.35;;
17864;SDS011;9058;52.018;4.202;2024-02-26T13:07:11;11.15;;;10.52;;
17864;SDS011;9058;52.018;4.202;2024-02-26T13:09:37;11.95;;;11.05;;
17864;SDS011;9058;52.018;4.202;2024-02-26T13:12:05;11.55;;;10.85;;
17864;SDS011;9058;52.018;4.202;2024-02-26T13:14:36;10.35;;;9.85;;
17864;SDS011;9058;52.018;4.202;2024-02-26T13:17:03;10.70;;;9.98;;
17864;SDS011;9058;52.018;4.202;2024-02-26T13:19:29;9.60;;;8.93;;
17864;SDS011;9058;52.018;4.202;2024-02-26T13:22:02;9.93;;;9.23;;
17864;SDS011;9058;52.018;4.202;2024-02-26T13:24:29;10.15;;;9.55;;
17864;SDS011;9058;52.018;4.202;2024-02-26T13:26:56;9.40;;;8.90;;
17864;SDS011;9058;52.018;4.202;2024-02-26T13:29:23;10.05;;;9.35;;
17864;SDS011;9058;52.018;4.202;2024-02-26T13:31:54;10.02;;;9.32;;
17864;SDS011;9058;52.018;4.202;2024-02-26T13:34:23;8.70;;;8.10;;
17864;SDS011;9058;52.018;4.202;2024-02-26T13:36:50;10.00;;;9.35;;
17864;SDS011;9058;52.018;4.202;2024-02-26T13:39:24;9.77;;;9.07;;
17864;SDS011;9058;52.018;4.202;2024-02-26T13:41:50;10.85;;;9.88;;
17864;SDS011;9058;52.018;4.202;2024-02-26T13:44:17;8.77;;;8.10;;
17864;SDS011;9058;52.018;4.202;2024-02-26T13:46:43;9.32;;;8.82;;
17864;SDS011;9058;52.018;4.202;2024-02-26T13:49:11;9.80;;;9.30;;
17864;SDS011;9058;52.018;4.202;2024-02-26T13:51:37;9.82;;;9.15;;
17864;SDS011;9058;52.018;4.202;2024-02-26T13:54:04;9.65;;;9.05;;
17864;SDS011;9058;52.018;4.202;2024-02-26T13:56:32;10.48;;;9.77;;
17864;SDS011;9058;52.018;4.202;2024-02-26T13:58:58;10.20;;;9.60;;
17864;SDS011;9058;52.018;4.202;2024-02-26T14:01:25;7.18;;;6.78;;
17864;SDS011;9058;52.018;4.202;2024-02-26T14:03:54;10.63;;;8.88;;
17864;SDS011;9058;52.018;4.202;2024-02-26T14:06:24;8.73;;;8.23;;
17864;SDS011;9058;52.018;4.202;2024-02-26T14:08:50;8.40;;;7.80;;
17864;SDS011;9058;52.018;4.202;2024-02-26T14:11:17;8.35;;;7.55;;
17864;SDS011;9058;52.018;4.202;2024-02-26T14:13:43;9.00;;;8.40;;
17864;SDS011;9058;52.018;4.202;2024-02-26T14:16:11;8.40;;;7.70;;
17864;SDS011;9058;52.018;4.202;2024-02-26T14:18:38;9.25;;;8.50;;
17864;SDS011;9058;52.018;4.202;2024-02-26T14:21:05;7.78;;;7.28;;
17864;SDS011;9058;52.018;4.202;2024-02-26T14:23:34;8.20;;;7.50;;
17864;SDS011;9058;52.018;4.202;2024-02-26T14:26:01;8.15;;;7.55;;
17864;SDS011;9058;52.018;4.202;2024-02-26T14:28:27;7.45;;;6.97;;
17864;SDS011;9058;52.018;4.202;2024-02-26T14:30:55;9.07;;;8.57;;
17864;SDS011;9058;52.018;4.202;2024-02-26T14:33:21;8.18;;;7.57;;
17864;SDS011;9058;52.018;4.202;2024-02-26T14:35:48;7.93;;;7.30;;